Time;durP1;ratioP1;P1;durP2;ratioP2;P2;SDS_P1;SDS_P2;PMS_P1;PMS_P2;Temp;Humidity;BMP_temperature;BMP_pressure;BME280_temperature;BME280_humidity;BME280_pressure;Samples;Min_cycle;Max_cycle;Signal;HPM_P1;HPM_P2
2023/12/09 00:04:15;;;;;;;75.90;41.10;;;;;;;2.03;68.52;99185.19;234335;215;136752;-60
2023/12/09 00:09:18;;;;;;;73.20;39.40;;;;;;;2.01;68.24;99183.85;234384;209;147654;-59
2023/12/09 00:14:22;;;;;;;70.20;38.00;;;;;;;1.95;68.23;99184.89;234381;215;141283;-59
2023/12/09 00:19:25;;;;;;;67.00;37.40;;;;;;;1.89;68.20;99185.02;234474;215;137572;-60
2023/12/09 00:24:28;;;;;;;69.90;38.00;;;;;;;1.81;68.40;99190.13;234556;215;147624;-61
2023/12/09 00:29:31;;;;;;;81.70;39.10;;;;;;;1.75;68.41;99189.58;234261;214;139957;-60
2023/12/09 00:34:35;;;;;;;66.90;36.60;;;;;;;1.74;68.61;99192.55;234132;212;137040;-58
2023/12/09 00:39:38;;;;;;;73.90;40.70;;;;;;;1.82;68.73;99197.10;233745;212;147522;-58
2023/12/09 00:44:42;;;;;;;76.20;41.60;;;;;;;1.89;68.38;99194.48;234298;213;139085;-60
2023/12/09 00:49:45;;;;;;;70.90;38.90;;;;;;;1.94;68.45;99197.17;234403;215;137146;-59
2023/12/09 00:54:48;;;;;;;72.90;39.00;;;;;;;1.98;68.41;99194.08;234459;213;147597;-60
2023/12/09 00:59:52;;;;;;;81.30;41.30;;;;;;;1.99;67.99;99192.13;234494;215;139945;-60
2023/12/09 01:04:55;;;;;;;75.10;40.60;;;;;;;1.99;67.90;99182.70;234268;215;136980;-60
2023/12/09 01:09:58;;;;;;;74.70;42.20;;;;;;;1.92;67.90;99191.27;234325;215;148179;-60
2023/12/09 01:15:03;;;;;;;82.20;43.70;;;;;;;1.82;68.12;99199.03;234214;215;140526;-58
2023/12/09 01:20:07;;;;;;;80.40;42.00;;;;;;;1.80;68.40;99194.70;234106;215;138384;-59
2023/12/09 01:25:11;;;;;;;72.10;38.80;;;;;;;1.77;68.36;99197.22;234452;215;147595;-59
2023/12/09 01:30:14;;;;;;;80.50;42.00;;;;;;;1.76;68.45;99198.64;234493;215;138758;-58
2023/12/09 01:35:17;;;;;;;76.50;41.20;;;;;;;1.71;68.46;99203.83;234308;215;137736;-58
2023/12/09 01:40:21;;;;;;;80.50;43.20;;;;;;;1.63;68.41;99206.27;233735;215;147432;-59
2023/12/09 01:45:24;;;;;;;80.10;43.20;;;;;;;1.56;68.61;99208.90;234412;214;140694;-59
2023/12/09 01:50:30;;;;;;;83.80;42.20;;;;;;;1.48;68.80;99210.13;233485;214;137492;-58
2023/12/09 01:55:33;;;;;;;79.50;42.10;;;;;;;1.45;68.95;99221.92;234474;215;148112;-58
2023/12/09 02:00:38;;;;;;;81.40;42.10;;;;;;;1.39;69.04;99229.55;234481;212;139055;-59
2023/12/09 02:05:42;;;;;;;77.50;39.30;;;;;;;1.39;69.29;99227.27;234347;215;138232;-59
2023/12/09 02:10:56;;;;;;;84.10;42.30;;;;;;;1.40;69.13;99221.30;233802;208;147649;-59
2023/12/09 02:16:06;;;;;;;81.80;42.80;;;;;;;1.44;69.21;99221.23;233690;213;139445;-60
2023/12/09 02:21:09;;;;;;;76.00;40.40;;;;;;;1.50;69.16;99213.75;234353;215;136775;-61
2023/12/09 02:26:23;;;;;;;80.40;41.40;;;;;;;1.51;69.00;99221.42;233710;215;147628;-60
2023/12/09 02:31:29;;;;;;;82.20;41.10;;;;;;;1.43;68.91;99219.68;234112;215;140065;-57
2023/12/09 02:36:34;;;;;;;77.60;41.90;;;;;;;1.32;69.10;99223.59;234457;215;136607;-58
2023/12/09 02:41:40;;;;;;;77.10;40.90;;;;;;;1.35;69.39;99213.57;234308;214;147667;-59
2023/12/09 02:46:43;;;;;;;81.40;40.30;;;;;;;1.38;69.37;99208.09;234477;215;138687;-57
2023/12/09 02:51:47;;;;;;;79.60;41.40;;;;;;;1.38;69.25;99207.88;234183;215;137325;-58
2023/12/09 02:56:50;;;;;;;82.40;42.10;;;;;;;1.37;69.30;99214.20;234373;213;147735;-58
2023/12/09 03:01:53;;;;;;;87.90;42.20;;;;;;;1.36;69.33;99217.57;234394;215;139020;-57
2023/12/09 03:06:56;;;;;;;83.80;42.60;;;;;;;1.33;69.30;99216.94;234082;215;140746;-57
2023/12/09 03:12:00;;;;;;;86.20;43.20;;;;;;;1.30;69.30;99217.17;234461;215;147530;-57
2023/12/09 03:17:03;;;;;;;87.80;42.70;;;;;;;1.26;69.31;99211.67;234338;215;143003;-60
2023/12/09 03:22:07;;;;;;;82.50;40.30;;;;;;;1.27;69.58;99209.20;234288;215;136746;-62
2023/12/09 03:27:10;;;;;;;85.20;42.50;;;;;;;1.24;69.42;99212.92;234404;215;147719;-60
2023/12/09 03:32:13;;;;;;;85.40;42.20;;;;;;;1.18;69.57;99213.73;234143;215;138664;-60
2023/12/09 03:37:17;;;;;;;97.20;44.20;;;;;;;1.11;69.45;99207.60;234187;215;136917;-61
2023/12/09 03:42:20;;;;;;;88.50;42.90;;;;;;;1.12;69.66;99213.88;233906;212;148354;-61
2023/12/09 03:47:23;;;;;;;92.20;44.20;;;;;;;1.20;69.47;99223.31;234119;213;138772;-61
2023/12/09 03:52:31;;;;;;;95.50;44.90;;;;;;;1.27;69.36;99221.78;234364;215;137884;-62
2023/12/09 03:57:35;;;;;;;99.80;45.70;;;;;;;1.31;69.09;99212.08;234467;214;148053;-61
2023/12/09 04:02:38;;;;;;;102.30;46.50;;;;;;;1.27;68.90;99211.64;234363;215;139626;-61
2023/12/09 04:07:41;;;;;;;104.50;45.80;;;;;;;1.26;68.71;99215.69;234310;215;137781;-63
2023/12/09 04:12:44;;;;;;;100.60;44.60;;;;;;;1.24;68.34;99221.67;234518;214;147411;-61
2023/12/09 04:17:48;;;;;;;110.50;47.10;;;;;;;1.11;68.36;99222.11;234289;213;139180;-62
2023/12/09 04:22:51;;;;;;;118.60;47.20;;;;;;;0.98;68.63;99215.20;234346;215;137026;-61
2023/12/09 04:27:54;;;;;;;118.80;48.30;;;;;;;0.92;69.06;99219.89;234225;215;147782;-62
2023/12/09 04:32:57;;;;;;;102.30;43.50;;;;;;;0.92;69.13;99223.39;234194;215;139559;-61
2023/12/09 04:38:01;;;;;;;102.70;44.20;;;;;;;0.86;69.08;99220.17;233762;212;137460;-61
2023/12/09 04:43:04;;;;;;;96.60;41.00;;;;;;;0.83;69.16;99216.05;234429;214;148615;-66
2023/12/09 04:48:07;;;;;;;99.10;39.80;;;;;;;0.83;69.34;99207.67;234311;215;138637;-61
2023/12/09 04:53:11;;;;;;;96.60;39.70;;;;;;;0.80;69.09;99211.91;234411;215;137610;-61
2023/12/09 04:58:14;;;;;;;91.10;41.10;;;;;;;0.75;69.04;99209.05;234228;214;147580;-61
2023/12/09 05:03:17;;;;;;;87.50;39.00;;;;;;;0.72;68.97;99215.56;234389;215;139389;-62
2023/12/09 05:08:21;;;;;;;94.80;41.30;;;;;;;0.75;69.11;99212.36;234404;215;137304;-62
2023/12/09 05:13:24;;;;;;;87.10;38.80;;;;;;;0.75;69.01;99211.69;234280;215;148600;-60
2023/12/09 05:18:27;;;;;;;99.30;40.60;;;;;;;0.77;69.11;99199.06;234484;215;139365;-60
2023/12/09 05:23:30;;;;;;;96.60;41.00;;;;;;;0.79;68.79;99211.77;234352;215;137752;-59
2023/12/09 05:28:34;;;;;;;91.60;40.70;;;;;;;0.78;68.61;99224.52;234265;215;148014;-60
2023/12/09 05:33:37;;;;;;;86.30;39.40;;;;;;;0.74;68.45;99223.38;234384;215;139996;-60
2023/12/09 05:38:41;;;;;;;80.80;39.80;;;;;;;0.70;68.55;99222.59;234189;215;136861;-62
2023/12/09 05:43:45;;;;;;;74.40;36.10;;;;;;;0.66;68.41;99223.71;234381;214;147689;-60
2023/12/09 05:48:49;;;;;;;75.90;36.10;;;;;;;0.62;68.37;99223.27;234433;215;139302;-60
2023/12/09 05:53:52;;;;;;;64.90;32.80;;;;;;;0.60;68.27;99224.70;234397;215;137630;-61
2023/12/09 05:58:56;;;;;;;58.90;28.80;;;;;;;0.53;68.19;99226.73;234397;213;148315;-63
2023/12/09 06:03:59;;;;;;;57.90;30.00;;;;;;;0.45;68.03;99226.88;234365;215;138996;-61
2023/12/09 06:09:04;;;;;;;55.60;28.70;;;;;;;0.41;68.10;99222.44;233957;215;267939;-59
2023/12/09 06:14:08;;;;;;;60.00;31.00;;;;;;;0.36;68.10;99219.55;234464;215;148732;-60
2023/12/09 06:19:11;;;;;;;54.50;29.40;;;;;;;0.36;68.13;99217.64;234366;215;139472;-61
2023/12/09 06:24:14;;;;;;;58.40;29.50;;;;;;;0.28;68.04;99222.30;234476;215;138039;-66
2023/12/09 06:29:21;;;;;;;53.70;28.60;;;;;;;0.19;68.31;99227.19;234415;214;147151;-63
2023/12/09 06:34:24;;;;;;;60.70;29.10;;;;;;;0.17;68.45;99230.70;234278;215;138793;-60
2023/12/09 06:39:28;;;;;;;59.00;29.80;;;;;;;0.15;68.40;99229.00;234137;215;137599;-62
2023/12/09 06:44:31;;;;;;;59.80;29.30;;;;;;;0.10;68.54;99222.98;233833;213;150840;-60
2023/12/09 06:49:37;;;;;;;63.80;31.40;;;;;;;0.07;68.79;99216.39;233899;213;138877;-62
2023/12/09 06:54:40;;;;;;;78.60;34.50;;;;;;;0.07;68.85;99226.50;234334;215;137229;-63
2023/12/09 06:59:44;;;;;;;137.70;75.10;;;;;;;0.10;69.28;99219.30;234356;215;147325;-59
2023/12/09 07:04:47;;;;;;;77.60;35.70;;;;;;;0.29;70.25;99214.09;234336;215;138636;-61
2023/12/09 07:09:50;;;;;;;73.40;33.20;;;;;;;0.41;68.59;99220.69;234108;208;138147;-61
2023/12/09 07:14:54;;;;;;;61.90;31.40;;;;;;;0.42;68.18;99217.01;234108;214;147529;-66
2023/12/09 07:19:59;;;;;;;64.10;32.60;;;;;;;0.48;67.90;99217.06;234303;213;138656;-61
2023/12/09 07:25:02;;;;;;;70.80;33.10;;;;;;;0.50;67.96;99221.56;234321;213;248370;-60
2023/12/09 07:30:06;;;;;;;76.90;35.70;;;;;;;0.52;68.01;99220.48;234479;215;147313;-62
2023/12/09 07:35:09;;;;;;;438.80;294.60;;;;;;;0.55;69.29;99218.69;234099;215;139489;-64
2023/12/09 07:40:13;;;;;;;176.70;95.40;;;;;;;0.80;68.91;99222.56;234421;214;136993;-66
2023/12/09 07:45:16;;;;;;;71.10;35.80;;;;;;;0.85;68.18;99215.84;234108;215;148258;-66
2023/12/09 07:50:19;;;;;;;76.30;38.70;;;;;;;0.75;67.48;99215.69;234155;215;139431;-63
2023/12/09 07:55:22;;;;;;;72.30;37.70;;;;;;;0.74;67.43;99198.23;234378;213;136947;-64
2023/12/09 08:00:27;;;;;;;73.20;37.70;;;;;;;0.68;67.45;99204.13;234537;215;148864;-63
2023/12/09 08:05:32;;;;;;;74.10;38.00;;;;;;;0.72;67.37;99205.98;234280;212;139083;-63
2023/12/09 08:10:36;;;;;;;263.00;139.40;;;;;;;0.76;67.64;99206.94;234317;215;137387;-62
2023/12/09 08:15:39;;;;;;;80.90;42.00;;;;;;;0.84;67.63;99203.81;233851;213;147281;-60
2023/12/09 08:20:42;;;;;;;75.40;38.80;;;;;;;0.87;66.93;99201.65;234294;215;138853;-64
2023/12/09 08:25:45;;;;;;;70.10;36.00;;;;;;;0.83;66.84;99207.48;234299;212;137804;-63
2023/12/09 08:30:48;;;;;;;61.60;34.20;;;;;;;0.80;66.70;99206.84;234474;213;148101;-63
2023/12/09 08:35:52;;;;;;;61.80;33.50;;;;;;;0.78;66.38;99215.63;234331;213;139442;-62
2023/12/09 08:40:55;;;;;;;55.10;31.00;;;;;;;0.70;66.28;99217.17;234332;211;137061;-63
2023/12/09 08:45:58;;;;;;;59.80;34.80;;;;;;;0.68;66.49;99216.67;234275;214;147590;-66
2023/12/09 08:51:03;;;;;;;69.20;36.40;;;;;;;0.72;66.53;99212.08;234128;215;150050;-66
2023/12/09 08:56:07;;;;;;;66.60;36.00;;;;;;;0.74;66.56;99216.75;234005;213;136848;-58
2023/12/09 09:01:12;;;;;;;157.60;88.30;;;;;;;0.75;66.99;99217.08;234315;214;148218;-63
2023/12/09 09:06:15;;;;;;;77.70;42.60;;;;;;;1.02;68.15;99208.66;234363;215;140153;-67
2023/12/09 09:11:20;;;;;;;69.80;36.40;;;;;;;1.16;66.47;99203.14;234349;215;137780;-65
2023/12/09 09:16:23;;;;;;;64.90;34.80;;;;;;;1.14;66.17;99201.94;234260;215;148250;-66
2023/12/09 09:21:26;;;;;;;64.10;35.70;;;;;;;1.12;65.82;99197.98;233944;215;138914;-64
2023/12/09 09:26:30;;;;;;;71.80;37.20;;;;;;;1.08;66.01;99200.52;234211;212;138071;-64
2023/12/09 09:31:33;;;;;;;66.60;36.40;;;;;;;1.11;66.03;99194.51;234278;213;147606;-64
2023/12/09 09:36:36;;;;;;;66.70;37.30;;;;;;;1.13;65.98;99188.88;234282;208;138808;-65
2023/12/09 09:41:54;;;;;;;69.70;38.00;;;;;;;1.19;66.27;99173.54;234091;213;137140;-64
2023/12/09 09:46:59;;;;;;;70.00;38.40;;;;;;;1.30;66.41;99164.75;234341;207;147367;-64
2023/12/09 09:52:09;;;;;;;74.80;40.70;;;;;;;1.35;66.35;99160.59;234022;215;140082;-64
2023/12/09 09:57:13;;;;;;;73.70;41.30;;;;;;;1.46;66.30;99160.36;234162;212;137810;-65
2023/12/09 10:02:20;;;;;;;76.00;40.30;;;;;;;1.48;66.07;99166.59;234072;213;149543;-63
2023/12/09 10:07:24;;;;;;;716.90;489.10;;;;;;;1.57;68.14;99154.83;234317;213;138849;-60
2023/12/09 10:12:27;;;;;;;76.20;42.50;;;;;;;2.01;67.68;99138.73;234600;213;138425;-67
2023/12/09 10:17:31;;;;;;;72.20;39.40;;;;;;;2.00;65.76;99131.73;234345;215;147350;-65
2023/12/09 10:22:35;;;;;;;77.70;42.30;;;;;;;1.96;65.55;99130.27;234332;208;139062;-64
2023/12/09 10:27:41;;;;;;;73.20;41.70;;;;;;;2.02;65.17;99131.50;234238;208;137428;-64
2023/12/09 10:32:46;;;;;;;77.30;42.10;;;;;;;2.11;65.18;99126.55;234003;213;148258;-66
2023/12/09 10:37:50;;;;;;;75.30;40.50;;;;;;;2.17;64.97;99121.52;234465;207;140126;-66
2023/12/09 10:42:56;;;;;;;75.30;41.10;;;;;;;2.17;64.96;99112.24;234345;213;137433;-64
2023/12/09 10:47:59;;;;;;;75.60;40.50;;;;;;;2.22;65.08;99101.24;234505;212;147391;-65
2023/12/09 10:53:04;;;;;;;72.60;39.30;;;;;;;2.25;64.96;99092.57;234171;213;143046;-67
2023/12/09 10:58:08;;;;;;;73.90;40.30;;;;;;;2.30;65.02;99094.18;234158;213;136688;-58
2023/12/09 11:03:11;;;;;;;124.70;73.20;;;;;;;2.40;66.43;99103.71;232898;212;149292;-59
2023/12/09 11:08:16;;;;;;;74.20;40.70;;;;;;;2.54;65.80;99097.69;234217;215;139259;-60
2023/12/09 11:13:19;;;;;;;69.90;39.30;;;;;;;2.56;65.11;99092.92;234257;212;137042;-60
2023/12/09 11:18:22;;;;;;;78.50;41.70;;;;;;;2.65;65.94;99089.52;234347;213;147624;-59
2023/12/09 11:23:26;;;;;;;75.90;42.70;;;;;;;2.69;65.14;99082.56;234268;213;138816;-60
2023/12/09 11:28:29;;;;;;;79.00;44.30;;;;;;;2.63;64.86;99083.61;234338;208;136586;-60
2023/12/09 11:33:33;;;;;;;81.30;44.60;;;;;;;2.59;65.02;99082.67;234367;214;147628;-60
2023/12/09 11:38:37;;;;;;;83.20;43.60;;;;;;;2.58;64.98;99080.09;234373;215;138955;-60
2023/12/09 11:43:40;;;;;;;112.40;63.10;;;;;;;2.66;66.43;99073.02;234314;213;136559;-59
2023/12/09 11:48:44;;;;;;;82.60;47.00;;;;;;;2.76;65.88;99068.50;234498;213;148563;-59
2023/12/09 11:53:55;;;;;;;86.80;48.30;;;;;;;2.72;65.52;99064.43;234391;213;140319;-57
2023/12/09 11:58:59;;;;;;;79.90;45.80;;;;;;;2.72;65.57;99062.33;234273;215;136630;-62
2023/12/09 12:04:02;;;;;;;87.20;46.90;;;;;;;2.67;65.69;99057.58;234237;208;149723;-60
2023/12/09 12:09:06;;;;;;;87.90;48.70;;;;;;;2.64;65.69;99060.13;234241;213;139096;-62
2023/12/09 12:14:09;;;;;;;90.20;48.30;;;;;;;2.56;65.58;99060.34;234253;213;136974;-61
2023/12/09 12:19:12;;;;;;;81.10;45.70;;;;;;;2.55;65.99;99047.77;234430;212;147440;-62
2023/12/09 12:24:17;;;;;;;92.30;48.00;;;;;;;2.59;65.97;99036.80;234471;214;139886;-61
2023/12/09 12:29:20;;;;;;;90.50;48.30;;;;;;;2.61;66.05;99037.63;233593;213;140273;-61
2023/12/09 12:34:24;;;;;;;107.00;60.00;;;;;;;2.71;67.53;99036.30;234128;212;148447;-62
2023/12/09 12:39:27;;;;;;;88.00;49.60;;;;;;;2.80;66.55;99029.86;234001;208;139384;-61
2023/12/09 12:44:32;;;;;;;89.90;47.30;;;;;;;2.77;66.18;99023.83;234375;215;136660;-62
2023/12/09 12:49:37;;;;;;;95.90;49.80;;;;;;;2.76;66.07;99020.71;234378;212;147725;-61
2023/12/09 12:54:41;;;;;;;;;;;;;;;2.73;66.19;99017.63;234382;215;139459;-60
2023/12/09 12:59:44;;;;;;;355.30;232.40;;;;;;;2.72;66.04;99017.16;234401;212;131456;-60
2023/12/09 13:04:48;;;;;;;97.70;53.30;;;;;;;2.86;69.20;99010.40;234281;213;148180;-60
2023/12/09 13:09:52;;;;;;;82.90;45.10;;;;;;;2.92;66.54;99013.36;234285;215;138916;-60
2023/12/09 13:14:56;;;;;;;87.90;49.80;;;;;;;2.91;65.98;99016.05;234442;211;138173;-61
2023/12/09 13:19:59;;;;;;;90.90;51.10;;;;;;;2.86;65.62;99013.39;234362;213;147402;-59
2023/12/09 13:25:04;;;;;;;90.10;49.60;;;;;;;2.79;65.82;99011.69;234257;211;140709;-60
2023/12/09 13:30:09;;;;;;;91.50;48.80;;;;;;;2.84;66.21;99012.23;234366;213;150068;-59
2023/12/09 13:35:14;;;;;;;90.20;50.00;;;;;;;2.87;66.10;99008.27;234359;215;148321;-58
2023/12/09 13:40:18;;;;;;;91.00;51.20;;;;;;;2.91;67.65;99008.68;234241;215;140379;-58
2023/12/09 13:45:24;;;;;;;84.20;47.40;;;;;;;2.93;66.35;98999.50;234356;212;136952;-56
2023/12/09 13:50:28;;;;;;;84.70;48.20;;;;;;;2.83;66.20;98993.14;234256;213;147702;-56
2023/12/09 13:55:31;;;;;;;87.00;48.80;;;;;;;2.81;66.32;98993.38;234368;213;138704;-58
2023/12/09 14:00:35;;;;;;;90.50;47.90;;;;;;;2.73;66.24;98985.05;234310;208;136742;-56
2023/12/09 14:05:38;;;;;;;89.10;48.40;;;;;;;2.68;66.39;98988.52;234337;212;147928;-56
2023/12/09 14:10:42;;;;;;;87.60;49.70;;;;;;;2.68;66.40;98994.33;234385;213;139793;-56
2023/12/09 14:15:45;;;;;;;81.80;46.40;;;;;;;2.58;66.24;98985.33;234392;214;137536;-57
2023/12/09 14:20:48;;;;;;;84.90;47.90;;;;;;;2.52;66.52;98984.66;234343;212;148005;-57
2023/12/09 14:25:52;;;;;;;89.30;46.90;;;;;;;2.49;66.60;98976.52;234275;213;138839;-56
2023/12/09 14:30:55;;;;;;;83.80;48.30;;;;;;;2.41;66.63;98970.27;234195;209;140163;-58
2023/12/09 14:35:58;;;;;;;86.50;47.60;;;;;;;2.37;66.75;98972.84;234370;208;149170;-58
2023/12/09 14:41:02;;;;;;;88.20;47.30;;;;;;;2.38;67.12;98967.22;234339;213;148434;-58
2023/12/09 14:46:06;;;;;;;88.70;47.40;;;;;;;2.34;67.06;98960.33;234426;213;137869;-57
2023/12/09 14:51:09;;;;;;;86.00;47.80;;;;;;;2.29;67.33;98951.74;234253;212;148131;-53
2023/12/09 14:56:13;;;;;;;80.10;46.20;;;;;;;2.25;67.64;98942.05;234355;213;138984;-54
2023/12/09 15:01:16;;;;;;;82.30;46.30;;;;;;;2.25;67.61;98937.86;234030;213;137387;-53
2023/12/09 15:06:19;;;;;;;86.00;48.00;;;;;;;2.22;67.43;98933.57;234163;208;148146;-54
2023/12/09 15:11:24;;;;;;;82.70;46.70;;;;;;;2.18;67.62;98932.30;233672;213;139364;-56
2023/12/09 15:16:28;;;;;;;84.20;47.30;;;;;;;2.14;67.95;98923.66;234158;213;136854;-53
2023/12/09 15:21:32;;;;;;;78.50;44.90;;;;;;;2.18;68.18;98920.20;234340;213;148279;-55
2023/12/09 15:26:36;;;;;;;83.50;49.00;;;;;;;2.26;67.98;98914.54;234265;213;138868;-52
2023/12/09 15:31:39;;;;;;;82.40;49.10;;;;;;;2.30;68.03;98899.90;234259;215;138847;-53
2023/12/09 15:36:43;;;;;;;113.90;64.70;;;;;;;2.40;69.48;98894.50;234355;214;148403;-56
2023/12/09 15:41:46;;;;;;;87.70;49.00;;;;;;;2.53;68.25;98893.04;234263;212;138931;-56
2023/12/09 15:46:49;;;;;;;91.30;49.40;;;;;;;2.44;67.72;98887.22;234349;211;137638;-56
2023/12/09 15:51:52;;;;;;;84.20;48.20;;;;;;;2.36;67.59;98889.73;234210;214;147475;-58
2023/12/09 15:56:56;;;;;;;90.30;50.40;;;;;;;2.24;67.77;98876.63;234223;208;138838;-58
2023/12/09 16:01:59;;;;;;;82.40;47.90;;;;;;;2.19;67.96;98865.75;234413;213;136603;-57
2023/12/09 16:07:03;;;;;;;90.50;49.50;;;;;;;2.11;67.91;98863.03;234218;213;148823;-57
2023/12/09 16:12:06;;;;;;;88.00;48.70;;;;;;;2.08;68.01;98859.98;234378;213;140446;-58
2023/12/09 16:17:10;;;;;;;107.60;62.60;;;;;;;2.04;68.56;98861.67;234160;213;137105;-57
2023/12/09 16:22:14;;;;;;;89.40;48.80;;;;;;;2.12;68.83;98856.16;234288;212;147544;-58
2023/12/09 16:27:18;;;;;;;107.90;59.50;;;;;;;2.11;69.82;98850.44;234286;212;140469;-57
2023/12/09 16:32:21;;;;;;;87.50;51.10;;;;;;;2.22;68.83;98848.17;234313;213;137882;-57
2023/12/09 16:37:25;;;;;;;90.10;51.40;;;;;;;2.20;68.28;98846.46;234261;213;147715;-58
2023/12/09 16:42:28;;;;;;;82.70;46.90;;;;;;;2.17;68.24;98840.96;234398;213;139057;-57
2023/12/09 16:47:34;;;;;;;90.30;48.40;;;;;;;2.17;68.19;98838.02;234196;208;138005;-59
2023/12/09 16:52:37;;;;;;;87.50;46.50;;;;;;;2.21;68.20;98839.98;234191;214;147929;-59
2023/12/09 16:57:43;;;;;;;85.90;50.30;;;;;;;2.36;68.16;98840.00;234176;213;139111;-57
2023/12/09 17:02:49;;;;;;;96.20;54.40;;;;;;;2.48;67.98;98834.20;234274;207;137718;-58
2023/12/09 17:07:52;;;;;;;90.00;50.40;;;;;;;2.57;67.59;98827.23;234247;212;148708;-57
2023/12/09 17:12:55;;;;;;;91.60;52.50;;;;;;;2.64;67.46;98827.89;234169;208;140098;-58
2023/12/09 17:17:58;;;;;;;88.80;51.60;;;;;;;2.67;67.23;98819.39;234347;213;138091;-58
2023/12/09 17:23:02;;;;;;;93.40;53.00;;;;;;;2.69;67.26;98817.05;234285;212;149154;-56
2023/12/09 17:28:05;;;;;;;90.30;51.20;;;;;;;2.72;67.13;98815.02;234212;211;139911;-58
2023/12/09 17:33:08;;;;;;;90.40;51.50;;;;;;;2.74;66.87;98811.23;234197;212;136619;-58
2023/12/09 17:38:16;;;;;;;92.20;51.00;;;;;;;2.71;66.75;98802.95;234266;213;147443;-58
2023/12/09 17:43:20;;;;;;;86.00;49.60;;;;;;;2.68;66.87;98798.52;234253;208;139598;-57
2023/12/09 17:48:23;;;;;;;90.80;51.80;;;;;;;2.63;67.09;98803.42;234363;213;139093;-57
2023/12/09 17:53:27;;;;;;;87.40;51.20;;;;;;;2.59;66.85;98802.11;234277;208;147507;-58
2023/12/09 17:58:30;;;;;;;87.00;50.50;;;;;;;2.57;66.45;98800.98;234343;208;139578;-57
2023/12/09 18:03:34;;;;;;;89.80;52.80;;;;;;;2.53;66.39;98782.91;234246;213;137446;-57
2023/12/09 18:08:37;;;;;;;86.70;52.60;;;;;;;2.58;66.51;98766.28;234353;207;147610;-57
2023/12/09 18:13:40;;;;;;;93.70;52.30;;;;;;;2.61;66.60;98747.43;234152;213;138893;-58
2023/12/09 18:18:44;;;;;;;94.50;52.90;;;;;;;2.66;66.31;98728.88;234353;212;136756;-56
2023/12/09 18:23:47;;;;;;;85.10;50.90;;;;;;;2.63;66.35;98726.17;234230;208;148031;-56
2023/12/09 18:28:51;;;;;;;95.10;52.90;;;;;;;2.70;68.01;98723.51;234242;213;138887;-59
2023/12/09 18:33:54;;;;;;;92.10;51.10;;;;;;;2.74;66.77;98720.35;234323;212;138640;-57
2023/12/09 18:38:57;;;;;;;88.80;54.70;;;;;;;2.75;66.49;98716.46;233983;212;148356;-56
2023/12/09 18:44:02;;;;;;;88.20;52.80;;;;;;;2.84;66.26;98711.95;233890;213;140515;-56
2023/12/09 18:49:07;;;;;;;90.00;54.60;;;;;;;2.91;65.77;98702.39;234154;210;137003;-57
2023/12/09 18:54:11;;;;;;;102.20;56.80;;;;;;;2.89;65.72;98680.55;234434;209;147574;-55
2023/12/09 18:59:15;;;;;;;93.50;55.30;;;;;;;2.85;65.48;98670.94;234316;213;138981;-57
2023/12/09 19:04:21;;;;;;;90.10;52.60;;;;;;;2.80;65.64;98670.92;234362;212;136898;-55
2023/12/09 19:09:24;;;;;;;212.30;135.10;;;;;;;2.75;65.76;98667.61;234195;213;147664;-56
2023/12/09 19:14:27;;;;;;;102.60;57.50;;;;;;;2.85;66.58;98666.00;234282;213;139455;-56
2023/12/09 19:19:32;;;;;;;183.80;109.60;;;;;;;2.85;65.84;98654.42;234080;212;137853;-56
2023/12/09 19:24:36;;;;;;;125.10;69.90;;;;;;;3.06;68.65;98644.02;234393;213;148232;-57
2023/12/09 19:29:39;;;;;;;112.30;62.60;;;;;;;3.13;66.21;98629.55;234313;215;138790;-55
2023/12/09 19:34:43;;;;;;;116.70;62.00;;;;;;;3.06;65.59;98625.61;234361;213;138406;-56
2023/12/09 19:39:46;;;;;;;111.70;61.90;;;;;;;2.98;65.62;98615.58;234288;213;147647;-58
2023/12/09 19:44:49;;;;;;;112.00;63.20;;;;;;;2.88;65.63;98610.88;233831;208;138840;-57
2023/12/09 19:49:53;;;;;;;109.70;62.70;;;;;;;2.77;65.82;98605.33;234349;208;137723;-56
2023/12/09 19:54:56;;;;;;;112.10;64.30;;;;;;;2.73;66.17;98594.27;234265;207;148649;-56
2023/12/09 20:00:00;;;;;;;110.60;62.30;;;;;;;2.71;66.35;98587.88;234418;208;139609;-57
2023/12/09 20:05:06;;;;;;;107.90;61.10;;;;;;;2.70;66.39;98577.75;234097;211;136825;-58
2023/12/09 20:10:10;;;;;;;109.00;63.80;;;;;;;2.74;66.39;98574.45;234282;213;148756;-56
2023/12/09 20:15:13;;;;;;;110.10;62.00;;;;;;;2.79;66.22;98566.73;234252;213;138881;-57
2023/12/09 20:20:17;;;;;;;107.20;61.00;;;;;;;2.77;66.00;98551.91;234378;213;137716;-56
2023/12/09 20:25:20;;;;;;;104.60;60.10;;;;;;;2.71;65.92;98538.52;234291;212;147466;-57
2023/12/09 20:30:23;;;;;;;113.70;63.80;;;;;;;2.60;65.88;98533.84;234392;215;138880;-57
2023/12/09 20:35:27;;;;;;;115.70;62.40;;;;;;;2.48;65.93;98529.01;234069;213;137039;-57
2023/12/09 20:40:31;;;;;;;114.20;61.80;;;;;;;2.36;65.79;98528.23;234335;213;147925;-57
2023/12/09 20:45:36;;;;;;;109.80;63.90;;;;;;;2.26;65.87;98517.95;234351;213;139641;-58
2023/12/09 20:50:40;;;;;;;113.30;64.10;;;;;;;2.17;66.00;98499.22;234331;215;136826;-55
2023/12/09 20:55:44;;;;;;;116.80;63.30;;;;;;;2.12;65.77;98482.06;234446;215;147627;-57
2023/12/09 21:00:48;;;;;;;125.40;68.70;;;;;;;2.06;66.10;98490.30;234559;215;139326;-57
2023/12/09 21:05:52;;;;;;;119.90;68.10;;;;;;;2.04;66.11;98475.02;234358;215;137088;-58
2023/12/09 21:10:55;;;;;;;120.10;65.80;;;;;;;2.06;66.11;98462.67;234300;213;147559;-54
2023/12/09 21:15:59;;;;;;;117.60;64.60;;;;;;;2.03;66.22;98454.06;234380;213;140582;-58
2023/12/09 21:21:03;;;;;;;113.10;64.50;;;;;;;1.99;66.11;98456.81;234364;215;137538;-58
2023/12/09 21:26:06;;;;;;;113.90;64.90;;;;;;;1.90;66.11;98458.88;234394;215;148693;-57
2023/12/09 21:31:13;;;;;;;115.50;62.70;;;;;;;1.78;66.19;98451.47;234385;215;138814;-56
2023/12/09 21:36:16;;;;;;;107.40;61.00;;;;;;;1.76;66.13;98442.96;234427;215;136834;-57
2023/12/09 21:41:21;;;;;;;111.80;63.80;;;;;;;1.72;65.73;98439.80;234339;215;147780;-57
2023/12/09 21:46:24;;;;;;;116.90;62.30;;;;;;;1.65;65.88;98430.42;234128;215;139227;-59
2023/12/09 21:51:28;;;;;;;112.20;59.60;;;;;;;1.56;65.86;98430.21;234443;215;137091;-58
2023/12/09 21:56:31;;;;;;;104.50;59.80;;;;;;;1.50;66.01;98428.86;234344;215;147571;-55
2023/12/09 22:01:35;;;;;;;109.80;61.10;;;;;;;1.43;65.65;98421.94;234326;215;138738;-55
2023/12/09 22:06:38;;;;;;;106.70;59.40;;;;;;;1.37;65.89;98417.23;234370;215;139593;-57
2023/12/09 22:11:42;;;;;;;104.60;59.90;;;;;;;1.34;65.64;98401.98;234220;215;148723;-57
2023/12/09 22:16:45;;;;;;;107.50;61.00;;;;;;;1.27;65.69;98397.52;234091;215;140142;-55
2023/12/09 22:21:48;;;;;;;106.50;58.40;;;;;;;1.21;65.38;98402.45;234368;215;136786;-56
2023/12/09 22:26:52;;;;;;;101.40;58.20;;;;;;;1.09;65.68;98403.73;234240;215;147886;-58
2023/12/09 22:31:56;;;;;;;108.20;58.60;;;;;;;1.05;65.50;98408.04;234304;215;138662;-56
2023/12/09 22:36:59;;;;;;;104.60;58.30;;;;;;;0.98;65.28;98403.75;234278;215;138345;-55
2023/12/09 22:42:03;;;;;;;102.80;55.60;;;;;;;0.93;65.46;98393.09;234473;215;149750;-56
2023/12/09 22:47:06;;;;;;;99.90;56.30;;;;;;;0.84;65.16;98374.02;233853;211;149367;-56
2023/12/09 22:52:09;;;;;;;98.50;55.20;;;;;;;0.76;65.45;98353.14;234359;215;137239;-56
2023/12/09 22:57:14;;;;;;;109.20;59.70;;;;;;;0.64;65.39;98337.66;234408;215;149300;-57
2023/12/09 23:02:18;;;;;;;98.40;55.10;;;;;;;0.53;65.55;98329.32;234292;214;138880;-55
2023/12/09 23:07:25;;;;;;;101.80;55.30;;;;;;;0.39;66.05;98326.12;234667;212;137783;-58
2023/12/09 23:12:28;;;;;;;95.50;51.60;;;;;;;0.28;66.12;98319.48;234345;215;148064;-56